Time,TemperatureF,DewpointF,PressureIn,WindDirection,WindDirectionDegrees,WindSpeedMPH,WindSpeedGustMPH,Humidity,HourlyPrecipIn,Conditions,Clouds,dailyrainin,SoftwareType,DateUTC
2013-06-23 00:02:00,73.0,13.0,29.91,East,88,7.0,7.0,10,0.00,,,-99.99,,2013-06-23 06:02:00,
2013-06-23 00:12:00,71.0,19.0,29.91,East,91,7.0,8.0,14,0.00,,,-99.99,,2013-06-23 06:12:00,
2013-06-23 00:22:00,70.0,19.0,29.91,ESE,104,6.0,9.0,14,0.00,,,-99.99,,2013-06-23 06:22:00,
2013-06-23 00:33:00,71.0,16.0,29.91,East,98,6.0,9.0,12,0.00,,,-99.99,,2013-06-23 06:33:00,
2013-06-23 00:43:00,70.0,15.0,29.91,East,92,7.0,9.0,12,0.00,,,-99.99,,2013-06-23 06:43:00,
2013-06-23 00:52:00,70.0,13.0,29.91,SE,142,4.0,5.0,11,0.00,,,-99.99,,2013-06-23 06:52:00,
2013-06-23 01:02:00,70.0,11.0,29.91,East,92,4.0,7.0,10,0.00,,,-99.99,,2013-06-23 07:02:00,
2013-06-23 01:12:00,70.0,11.0,29.92,ESE,112,6.0,9.0,10,0.00,,,-99.99,,2013-06-23 07:12:00,
2013-06-23 01:22:00,71.0,9.0,29.91,ESE,105,5.0,7.0,9,0.00,,,-99.99,,2013-06-23 07:22:00,
2013-06-23 01:34:00,72.0,7.0,29.91,East,92,5.0,6.0,8,0.00,,,-99.99,,2013-06-23 07:34:00,
2013-06-23 01:43:00,70.0,17.0,29.92,East,101,6.0,8.0,13,0.00,,,-99.99,,2013-06-23 07:43:00,
2013-06-23 01:53:00,67.0,19.0,29.92,ESE,102,7.0,9.0,16,0.00,,,-99.99,,2013-06-23 07:53:00,
2013-06-23 02:02:00,67.0,18.0,29.93,East,98,7.0,8.0,15,0.00,,,-99.99,,2013-06-23 08:02:00,
2013-06-23 02:11:00,67.0,18.0,29.93,East,92,8.0,8.0,15,0.00,,,-99.99,,2013-06-23 08:11:00,
2013-06-23 02:22:00,68.0,19.0,29.93,East,95,6.0,9.0,15,0.00,,,-99.99,,2013-06-23 08:22:00,
2013-06-23 02:33:00,66.0,19.0,29.93,SSE,154,0.0,9.0,16,0.00,,,-99.99,,2013-06-23 08:33:00,
2013-06-23 02:42:00,66.0,21.0,29.93,East,99,6.0,6.0,18,0.00,,,-99.99,,2013-06-23 08:42:00,
2013-06-23 02:53:00,66.0,21.0,29.93,ESE,112,5.0,8.0,18,0.00,,,-99.99,,2013-06-23 08:53:00,
2013-06-23 03:02:00,65.0,19.0,29.94,East,80,6.0,8.0,17,0.00,,,-99.99,,2013-06-23 09:02:00,
2013-06-23 03:12:00,65.0,15.0,29.95,SSE,165,4.0,4.0,14,0.00,,,-99.99,,2013-06-23 09:12:00,
2013-06-23 03:22:00,67.0,13.0,29.95,ESE,102,4.0,8.0,12,0.00,,,-99.99,,2013-06-23 09:22:00,
2013-06-23 03:34:00,66.0,12.0,29.95,SE,126,5.0,7.0,12,0.00,,,-99.99,,2013-06-23 09:34:00,
2013-06-23 03:43:00,67.0,11.0,29.95,SSE,149,5.0,6.0,11,0.00,,,-99.99,,2013-06-23 09:43:00,
2013-06-23 03:53:00,68.0,9.0,29.95,South,170,8.0,9.0,10,0.00,,,-99.99,,2013-06-23 09:53:00,
2013-06-23 04:02:00,68.0,7.0,29.95,SE,139,7.0,9.0,9,0.00,,,-99.99,,2013-06-23 10:02:00,
2013-06-23 04:11:00,68.0,7.0,29.95,SSE,157,6.0,7.0,9,0.00,,,-99.99,,2013-06-23 10:11:00,
2013-06-23 04:22:00,68.0,7.0,29.95,SSE,147,5.0,8.0,9,0.00,,,-99.99,,2013-06-23 10:22:00,
2013-06-23 04:34:00,68.0,7.0,29.94,SSE,149,5.0,8.0,9,0.00,,,-99.99,,2013-06-23 10:34:00,
2013-06-23 04:43:00,68.0,7.0,29.94,SSE,156,6.0,7.0,9,0.00,,,-99.99,,2013-06-23 10:43:00,
2013-06-23 04:52:00,67.0,6.0,29.94,SSE,158,5.0,6.0,9,0.00,,,-99.99,,2013-06-23 10:52:00,
2013-06-23 05:01:00,68.0,7.0,29.95,SE,142,5.0,7.0,9,0.00,,,-99.99,,2013-06-23 11:01:00,
2013-06-23 05:11:00,67.0,9.0,29.95,SSE,157,3.0,6.0,10,0.00,,,-99.99,,2013-06-23 11:11:00,
2013-06-23 05:22:00,67.0,9.0,29.95,SSE,153,2.0,5.0,10,0.00,,,-99.99,,2013-06-23 11:22:00,
2013-06-23 05:33:00,67.0,9.0,29.95,South,171,2.0,4.0,10,0.00,,,-99.99,,2013-06-23 11:33:00,
2013-06-23 05:43:00,64.0,15.0,29.96,ESE,115,6.0,7.0,15,0.00,,,-99.99,,2013-06-23 11:43:00,
2013-06-23 05:53:00,63.0,16.0,29.96,SE,132,4.0,7.0,16,0.00,,,-99.99,,2013-06-23 11:53:00,
2013-06-23 06:01:00,64.0,12.0,29.96,SE,135,4.0,5.0,13,0.00,,,-99.99,,2013-06-23 12:01:00,
2013-06-23 06:12:00,66.0,10.0,29.97,SE,133,1.0,4.0,11,0.00,,,-99.99,,2013-06-23 12:12:00,
2013-06-23 06:22:00,65.0,15.0,29.97,East,101,5.0,5.0,14,0.00,,,-99.99,,2013-06-23 12:22:00,
2013-06-23 06:33:00,64.0,15.0,29.97,ESE,105,6.0,6.0,15,0.00,,,-99.99,,2013-06-23 12:33:00,
2013-06-23 06:42:00,63.0,18.0,29.98,ESE,112,5.0,6.0,17,0.00,,,-99.99,,2013-06-23 12:42:00,
2013-06-23 07:01:00,63.0,19.0,29.98,ESE,105,5.0,5.0,18,0.00,,,-99.99,,2013-06-23 13:01:00,
2013-06-23 07:11:00,64.0,20.0,29.98,ESE,118,4.0,6.0,18,0.00,,,-99.99,,2013-06-23 13:11:00,
2013-06-23 07:23:00,67.0,16.0,29.98,SSW,205,4.0,5.0,14,0.00,,,-99.99,,2013-06-23 13:23:00,
2013-06-23 07:34:00,68.0,14.0,29.98,SSW,205,2.0,6.0,12,0.00,,,-99.99,,2013-06-23 13:34:00,
2013-06-23 07:43:00,69.0,8.0,29.98,South,189,8.0,8.0,9,0.00,,,-99.99,,2013-06-23 13:43:00,
2013-06-23 07:53:00,70.0,9.0,29.98,SSW,195,6.0,9.0,9,0.00,,,-99.99,,2013-06-23 13:53:00,
2013-06-23 08:04:00,70.0,9.0,29.98,South,191,6.0,9.0,9,0.00,,,-99.99,,2013-06-23 14:04:00,
2013-06-23 08:11:00,71.0,9.0,29.98,South,182,7.0,11.0,9,0.00,,,-99.99,,2013-06-23 14:11:00,
2013-06-23 08:22:00,72.0,7.0,29.98,South,180,6.0,11.0,8,0.00,,,-99.99,,2013-06-23 14:22:00,
2013-06-23 08:34:00,72.0,5.0,29.98,SSW,208,10.0,11.0,7,0.00,,,-99.99,,2013-06-23 14:34:00,
2013-06-23 08:44:00,72.0,5.0,29.98,South,174,8.0,13.0,7,0.00,,,-99.99,,2013-06-23 14:44:00,
2013-06-23 08:52:00,73.0,5.0,29.98,SW,230,6.0,11.0,7,0.00,,,-99.99,,2013-06-23 14:52:00,
2013-06-23 22:02:00,82.0,4.0,29.79,South,188,9.0,11.0,5,0.00,,,-99.99,,2013-06-24 04:02:00,
2013-06-23 22:12:00,82.0,4.0,29.80,SSE,156,6.0,11.0,5,0.00,,,-99.99,,2013-06-24 04:12:00,
2013-06-23 22:22:00,81.0,4.0,29.80,SSW,194,8.0,11.0,5,0.00,,,-99.99,,2013-06-24 04:22:00,
2013-06-23 22:33:00,81.0,4.0,29.81,South,170,9.0,11.0,5,0.00,,,-99.99,,2013-06-24 04:33:00,
2013-06-23 22:43:00,80.0,3.0,29.81,South,175,11.0,12.0,5,0.00,,,-99.99,,2013-06-24 04:43:00,
2013-06-23 22:52:00,80.0,3.0,29.82,SSW,199,8.0,15.0,5,0.00,,,-99.99,,2013-06-24 04:52:00,